WetterOnline ( https://www.wetteronline.de )

Wetter aktuell Hohenpeißenberg

Aktuelles Wetter: Hohenpeißenberg (986m)

6-stündlich | Neueste Meldungen
Ortszeit Temperatur Wetter
Di, 05.07. 20:00 20.2° C wolkenlos
Di, 05.07. 14:00 19.2° C wolkig
Di, 05.07. 8:00 14.9° C bewölkt
Di, 05.07. 2:00 13.9° C leichter Regen
Mo, 04.07. 20:00 15.0° C starker Regen
Mo, 04.07. 14:00 20.4° C leicht bewölkt
Mo, 04.07. 8:00 15.5° C leichter Regen
Mo, 04.07. 2:00 19.3° C bedeckt
Ortszeit Temperatur Wetter
Di, 05.07. 23:00 17.0° C leicht bewölkt
Di, 05.07. 22:50 17.0° C leicht bewölkt
Di, 05.07. 22:40 17.3° C leicht bewölkt
Di, 05.07. 22:30 17.9° C wolkig
Di, 05.07. 22:20 17.9° C wolkig
Di, 05.07. 22:10 18.4° C wolkig
Di, 05.07. 22:00 18.5° C leicht bewölkt
Di, 05.07. 21:30 18.8° C leicht bewölkt
Di, 05.07. 21:00 18.8° C wolkenlos
Di, 05.07. 20:30 19.6° C wolkenlos
Di, 05.07. 20:00 20.2° C wolkenlos
Ortszeit Relative Feuchte Sichtweite
Di, 05.07. 20:00 44% 65 km
Di, 05.07. 14:00 66% 60 km
Di, 05.07. 8:00 92% 19 km
Di, 05.07. 2:00 92% 17 km
Mo, 04.07. 20:00 97% 0.6 km
Mo, 04.07. 14:00 66% 50 km
Mo, 04.07. 8:00 84% 23 km
Mo, 04.07. 2:00 63% 60 km
Ortszeit Relative Feuchte Sichtweite
Di, 05.07. 23:00 54% 60 km
Di, 05.07. 22:50 54% -
Di, 05.07. 22:40 53% -
Di, 05.07. 22:30 51% >70 km
Di, 05.07. 22:20 51% -
Di, 05.07. 22:10 48% -
Di, 05.07. 22:00 48% >70 km
Di, 05.07. 21:30 47% >70 km
Di, 05.07. 21:00 48% 65 km
Di, 05.07. 20:30 45% 60 km
Di, 05.07. 20:00 44% 65 km
Ortszeit Niederschlagsmenge Niederschlagsart
Di, 05.07. 20:00 0.2 l/m2 in 12 Std. -
Di, 05.07. 14:00 0.0 l/m2 in 6 Std. -
Di, 05.07. 8:00 23 l/m2 in 12 Std. Regen
Di, 05.07. 2:00 18 l/m2 in 6 Std. Regen
Mo, 04.07. 20:00 7 l/m2 in 12 Std. Regen
Mo, 04.07. 14:00 0.7 l/m2 in 6 Std. Regen
Mo, 04.07. 8:00 0.7 l/m2 in 12 Std. Regen
Mo, 04.07. 2:00 0.1 l/m2 in 6 Std. Regen
Ortszeit Niederschlagsmenge Niederschlagsart
Di, 05.07. 23:00 0.0 l/m2 in 1 Std. -
Di, 05.07. 22:50 keine Meldung -
Di, 05.07. 22:40 keine Meldung -
Di, 05.07. 22:30 0.0 l/m2 in 1 Std. -
Di, 05.07. 22:20 keine Meldung -
Di, 05.07. 22:10 keine Meldung -
Di, 05.07. 22:00 0.1 l/m2 in 1 Std. -
Di, 05.07. 21:30 0.1 l/m2 in 1 Std. -
Di, 05.07. 21:00 0.0 l/m2 in 1 Std. -
Di, 05.07. 20:30 0.0 l/m2 in 1 Std. -
Di, 05.07. 20:00 0.2 l/m2 in 1 Std. -
Ortszeit Stärke Spitze Richtung
km/h Bft. km/h Grad Sektor
Di, 05.07. 20:00 7 2 25 320° NW
Di, 05.07. 14:00 7 2 22 250° W
Di, 05.07. 8:00 9 2 17 270° W
Di, 05.07. 2:00 6 1 46 180° S
Mo, 04.07. 20:00 17 3 33 190° S
Mo, 04.07. 14:00 7 2 40 30° NO
Mo, 04.07. 8:00 24 4 46 240° SW
Mo, 04.07. 2:00 26 4 48 270° W
Ortszeit Stärke Spitze Richtung
km/h Bft. km/h Grad Sektor
Di, 05.07. 23:00 11 2 18 360° N
Di, 05.07. 22:50 11 2 - 360° N
Di, 05.07. 22:40 13 3 - 360° N
Di, 05.07. 22:30 11 2 14 350° N
Di, 05.07. 22:20 11 2 - 350° N
Di, 05.07. 22:10 9 2 - 340° N
Di, 05.07. 22:00 9 2 17 330° NW
Di, 05.07. 21:30 9 2 15 310° NW
Di, 05.07. 21:00 9 2 17 330° NW
Di, 05.07. 20:30 7 2 17 320° NW
Di, 05.07. 20:00 7 2 22 320° NW
Ortszeit Untergrenze Bedeckung Gattung
total tief tief mittel hoch
Di, 05.07. 20:00 - 0/8 0/8 - - -
Di, 05.07. 14:00 1110 m 6/8 6/8 - - -
Di, 05.07. 8:00 120 m 7/8 7/8 - - -
Di, 05.07. 2:00 660 m 8/8 8/8 - - -
Mo, 04.07. 20:00 240 m 8/8 8/8 - - -
Mo, 04.07. 14:00 690 m 4/8 1/8 - - -
Mo, 04.07. 8:00 1800 m 7/8 7/8 - - -
Mo, 04.07. 2:00 1800 m 8/8 8/8 - - -
Ortszeit Bedeckungsgrad in Achtel und Wolkenuntergrenze
Di, 05.07. 23:00 2(2700m)
Di, 05.07. 22:50 2(2700m)
Di, 05.07. 22:40 2
Di, 05.07. 22:30 4(2400m) 5(2700m)
Di, 05.07. 22:20 4(2400m) 5(2700m)
Di, 05.07. 22:10 6
Di, 05.07. 22:00 4(2400m)
Di, 05.07. 21:30 3(2100m)
Di, 05.07. 21:00 keine Wolken
Di, 05.07. 20:30 keine Wolken
Di, 05.07. 20:00 keine Wolken
Ortszeit Stationsdruck (hPa) Tendenz (hPa in 3 Std.)
Di, 05.07. 20:00 909 - 0,3
Di, 05.07. 14:00 910 + 0,1
Di, 05.07. 8:00 909 + 0,5
Di, 05.07. 2:00 909 + 0,1
Mo, 04.07. 20:00 908 + 0,3
Mo, 04.07. 14:00 909 - 0,1
Mo, 04.07. 8:00 910 + 2,2
Mo, 04.07. 2:00 909 + 0,8
Ortszeit Stationsdruck (hPa) Tendenz (hPa in 3 Std.)
Di, 05.07. 23:00 910 + 0,8
Di, 05.07. 22:50 910 keine Meldung
Di, 05.07. 22:40 910 keine Meldung
Di, 05.07. 22:30 910 + 0,7
Di, 05.07. 22:20 910 keine Meldung
Di, 05.07. 22:10 910 keine Meldung
Di, 05.07. 22:00 910 + 0,6
Di, 05.07. 21:30 910 + 0,5
Di, 05.07. 21:00 910 + 0,1
Di, 05.07. 20:30 910 - 0,1
Di, 05.07. 20:00 909 - 0,3
Ortszeit Schneehöhe (cm)
Di, 05.07. 20:00 0
Di, 05.07. 14:00 0
Di, 05.07. 8:00 0
Di, 05.07. 2:00 0
Mo, 04.07. 20:00 0
Mo, 04.07. 14:00 0
Mo, 04.07. 8:00 0
Mo, 04.07. 2:00 0
Ortszeit Schneehöhe (cm)
Di, 05.07. 23:00 0
Di, 05.07. 22:50 0
Di, 05.07. 22:40 0
Di, 05.07. 22:30 0
Di, 05.07. 22:20 0
Di, 05.07. 22:10 0
Di, 05.07. 22:00 0
Di, 05.07. 21:30 0
Di, 05.07. 21:00 0
Di, 05.07. 20:30 0
Di, 05.07. 20:00 0
Link zu dieser Seite / Seite empfehlen

Das Wetter in ...